createdAt,value
2019-05-05T00:01:35.103Z,61.80
2019-05-05T00:04:21.363Z,61.52
2019-05-05T00:06:54.896Z,61.77
2019-05-05T00:09:26.656Z,61.38
2019-05-05T00:12:17.878Z,61.31
2019-05-05T00:15:02.103Z,62.47
2019-05-05T00:17:38.418Z,63.67
2019-05-05T00:20:10.106Z,63.29
2019-05-05T00:22:41.822Z,63.20
2019-05-05T00:25:14.334Z,62.89
2019-05-05T00:27:47.853Z,62.83
2019-05-05T00:30:19.622Z,62.55
2019-05-05T00:32:54.850Z,62.29
2019-05-05T00:35:27.152Z,62.27
2019-05-05T00:38:01.995Z,62.05
2019-05-05T00:40:35.306Z,61.64
2019-05-05T00:43:07.180Z,62.40
2019-05-05T00:45:40.135Z,63.21
2019-05-05T00:48:20.241Z,63.36
2019-05-05T00:50:55.643Z,63.89
2019-05-05T00:53:27.252Z,64.33
2019-05-05T00:56:02.435Z,64.46
2019-05-05T00:58:35.826Z,64.87
2019-05-05T01:01:19.594Z,65.00
2019-05-05T01:03:51.771Z,65.04
2019-05-05T01:06:29.575Z,64.98
2019-05-05T01:09:04.390Z,64.94
2019-05-05T01:11:37.520Z,64.82
2019-05-05T01:14:09.194Z,64.71
2019-05-05T01:16:40.844Z,64.49
2019-05-05T01:19:12.532Z,64.20
2019-05-05T01:21:45.371Z,63.89
2019-05-05T01:24:17.161Z,64.27
2019-05-05T01:26:50.302Z,64.28
2019-05-05T01:29:21.957Z,64.12
2019-05-05T01:31:55.316Z,64.11
2019-05-05T01:34:34.866Z,64.35
2019-05-05T01:37:16.676Z,64.67
2019-05-05T01:40:02.232Z,65.12
2019-05-05T01:42:35.279Z,65.24
2019-05-05T01:45:07.246Z,65.53
2019-05-05T01:47:38.894Z,65.99
2019-05-05T01:50:18.488Z,66.37
2019-05-05T01:52:45.613Z,66.57
2019-05-05T01:55:17.314Z,66.58
2019-05-05T01:57:49.993Z,66.54
2019-05-05T02:00:25.222Z,66.47
2019-05-05T02:02:56.539Z,66.31
2019-05-05T02:05:28.189Z,66.61
2019-05-05T02:08:01.072Z,66.77
2019-05-05T02:10:34.873Z,67.11
2019-05-05T02:13:06.284Z,67.01
2019-05-05T02:15:38.225Z,66.59
2019-05-05T02:18:09.976Z,66.35
2019-05-05T02:21:05.942Z,65.84
2019-05-05T02:23:38.890Z,65.54
2019-05-05T02:26:10.563Z,65.30
2019-05-05T02:29:00.919Z,65.65
2019-05-05T02:31:50.430Z,65.65
2019-05-05T02:34:25.544Z,65.86
2019-05-05T02:36:56.570Z,66.42
2019-05-05T02:39:28.523Z,66.78
2019-05-05T02:42:00.364Z,66.92
2019-05-05T02:44:34.677Z,67.54
2019-05-05T02:47:11.830Z,67.77
2019-05-05T02:49:45.378Z,68.17
2019-05-05T02:52:17.163Z,67.49
2019-05-05T02:54:49.803Z,66.59
2019-05-05T02:57:21.519Z,67.31
2019-05-05T03:00:14.874Z,67.28
2019-05-05T03:02:48.431Z,66.93
2019-05-05T03:05:20.185Z,67.45
2019-05-05T03:07:51.902Z,67.79
2019-05-05T03:10:24.687Z,67.47
2019-05-05T03:12:56.359Z,67.78
2019-05-05T03:15:55.021Z,68.17
2019-05-05T03:18:26.384Z,68.79
2019-05-05T03:21:04.508Z,68.89
2019-05-05T03:23:33.434Z,68.54
2019-05-05T03:26:05.314Z,68.49
2019-05-05T03:28:45.360Z,68.43
2019-05-05T03:31:17.666Z,68.56
2019-05-05T03:33:54.702Z,68.29
2019-05-05T03:36:24.960Z,68.46
2019-05-05T03:38:56.856Z,68.25
2019-05-05T03:41:35.351Z,68.02
2019-05-05T03:44:28.853Z,68.38
2019-05-05T03:47:00.620Z,68.68
2019-05-05T03:49:33.812Z,68.52
2019-05-05T03:52:05.913Z,68.83
2019-05-05T03:54:37.623Z,69.08
2019-05-05T03:57:09.376Z,69.48
2019-05-05T03:59:44.042Z,69.69
2019-05-05T04:02:37.265Z,69.68
2019-05-05T04:05:26.771Z,69.48
2019-05-05T04:07:58.445Z,69.53
2019-05-05T04:10:33.500Z,69.86
2019-05-05T04:13:07.047Z,69.96
2019-05-05T04:15:44.198Z,69.95
2019-05-05T04:18:23.734Z,69.70
2019-05-05T04:20:54.904Z,69.18
2019-05-05T04:23:27.057Z,68.80
2019-05-05T04:25:58.741Z,68.64
2019-05-05T04:28:30.479Z,68.59
2019-05-05T04:31:04.093Z,68.49
2019-05-05T04:33:35.586Z,68.45
2019-05-05T04:36:07.648Z,68.87
2019-05-05T04:38:39.525Z,69.02
2019-05-05T04:41:11.257Z,69.16
2019-05-05T04:43:44.170Z,69.04
2019-05-05T04:46:16.057Z,69.36
2019-05-05T04:48:56.756Z,69.39
2019-05-05T04:51:46.296Z,69.54
2019-05-05T04:54:27.090Z,69.50
2019-05-05T04:56:58.756Z,69.66
2019-05-05T04:59:30.420Z,69.46
2019-05-05T05:02:06.725Z,69.13
2019-05-05T05:04:46.936Z,68.69
2019-05-05T05:07:19.339Z,68.29
2019-05-05T05:09:51.564Z,67.50
2019-05-05T05:12:25.004Z,67.57
2019-05-05T05:14:57.054Z,67.27
2019-05-05T05:17:36.653Z,66.98
2019-05-05T05:20:08.337Z,66.96
2019-05-05T05:22:39.991Z,65.57
2019-05-05T05:25:14.508Z,63.69
2019-05-05T05:27:46.194Z,62.76
2019-05-05T05:30:24.138Z,63.09
2019-05-05T05:32:56.527Z,63.47
2019-05-05T05:35:28.208Z,63.96
2019-05-05T05:38:01.639Z,66.47
2019-05-05T05:40:41.166Z,66.56
2019-05-05T05:43:16.736Z,66.11
2019-05-05T05:45:58.103Z,66.04
2019-05-05T05:48:49.750Z,65.06
2019-05-05T05:51:23.800Z,64.53
2019-05-05T05:53:55.596Z,63.37
2019-05-05T05:56:27.337Z,62.13
2019-05-05T05:58:58.996Z,62.34
2019-05-05T06:01:34.392Z,59.04
2019-05-05T06:04:05.761Z,57.78
2019-05-05T06:06:37.472Z,57.71
2019-05-05T06:09:09.209Z,56.08
2019-05-05T06:11:40.892Z,54.94
2019-05-05T06:14:14.433Z,53.53
2019-05-05T06:16:47.117Z,49.99
2019-05-05T06:19:18.970Z,46.45
2019-05-05T06:21:54.272Z,44.94
2019-05-05T06:24:27.036Z,42.34
2019-05-05T06:26:59.878Z,41.92
2019-05-05T06:29:34.533Z,42.69
2019-05-05T06:32:08.000Z,42.94
2019-05-05T06:34:39.688Z,41.23
2019-05-05T06:37:11.364Z,38.84
2019-05-05T06:39:43.985Z,37.74
2019-05-05T06:42:31.224Z,37.37
2019-05-05T06:45:11.413Z,36.96
2019-05-05T06:47:44.696Z,36.89
2019-05-05T06:50:16.339Z,38.60
2019-05-05T06:52:48.372Z,36.85
2019-05-05T06:55:20.285Z,33.19
2019-05-05T06:57:53.890Z,32.80
2019-05-05T07:00:25.673Z,34.04
2019-05-05T07:02:57.325Z,35.51
2019-05-05T07:05:29.083Z,36.45
2019-05-05T07:08:00.715Z,36.25
2019-05-05T07:10:33.880Z,36.31
2019-05-05T07:13:06.197Z,36.57
2019-05-05T07:15:38.042Z,35.86
2019-05-05T07:18:19.671Z,35.46
2019-05-05T07:21:03.813Z,35.17
2019-05-05T07:23:35.680Z,34.88
2019-05-05T07:26:07.312Z,33.70
2019-05-05T07:28:38.995Z,33.51
2019-05-05T07:31:10.624Z,33.85
2019-05-05T07:33:43.809Z,33.06
2019-05-05T07:36:34.028Z,33.52
2019-05-05T07:39:08.716Z,34.13
2019-05-05T07:41:40.793Z,34.08
2019-05-05T07:44:25.787Z,34.43
2019-05-05T07:46:45.835Z,35.77
2019-05-05T07:49:17.499Z,34.52
2019-05-05T07:51:49.423Z,35.17
2019-05-05T07:54:23.639Z,34.92
2019-05-05T07:56:55.839Z,34.03
2019-05-05T07:59:30.117Z,33.73
2019-05-05T08:02:04.071Z,34.31
2019-05-05T08:04:36.682Z,32.46
2019-05-05T08:07:08.550Z,33.48
2019-05-05T08:09:54.266Z,33.42
2019-05-05T08:12:26.550Z,32.79
2019-05-05T08:15:08.838Z,31.20
2019-05-05T08:18:09.763Z,32.13
2019-05-05T08:20:44.421Z,32.20
2019-05-05T08:23:31.827Z,31.28
2019-05-05T08:26:23.670Z,32.47
2019-05-05T08:29:14.353Z,31.57
2019-05-05T08:32:04.338Z,31.26
2019-05-05T08:34:36.398Z,31.10
2019-05-05T08:37:08.137Z,31.31
2019-05-05T08:39:40.482Z,32.41
2019-05-05T08:42:14.269Z,32.88
2019-05-05T08:44:45.602Z,33.27
2019-05-05T08:47:17.414Z,32.62
2019-05-05T08:49:49.050Z,33.30
2019-05-05T08:52:20.728Z,32.79
2019-05-05T08:54:54.169Z,32.66
2019-05-05T08:57:25.978Z,31.68
2019-05-05T08:59:58.128Z,32.90
2019-05-05T09:02:33.022Z,31.63
2019-05-05T09:05:04.238Z,30.95
2019-05-05T09:07:36.637Z,31.69
2019-05-05T09:10:08.702Z,32.24
2019-05-05T09:12:43.712Z,32.30
2019-05-05T09:15:18.366Z,32.08
2019-05-05T09:17:50.159Z,30.08
2019-05-05T09:20:24.055Z,30.79
2019-05-05T09:22:57.299Z,30.52
2019-05-05T09:25:54.040Z,29.59
2019-05-05T09:28:30.392Z,30.54
2019-05-05T09:31:04.045Z,30.74
2019-05-05T09:33:35.470Z,29.61
2019-05-05T09:36:07.362Z,29.23
2019-05-05T09:38:39.139Z,30.63
2019-05-05T09:41:10.802Z,29.07
2019-05-05T09:43:48.721Z,29.52
2019-05-05T09:46:20.396Z,30.27
2019-05-05T09:48:54.022Z,30.43
2019-05-05T09:51:25.458Z,30.04
2019-05-05T09:54:10.249Z,30.61
2019-05-05T09:56:30.795Z,29.83
2019-05-05T09:59:03.782Z,28.88
2019-05-05T10:01:35.612Z,30.25
2019-05-05T10:04:11.231Z,29.51
2019-05-05T10:06:47.620Z,29.72
2019-05-05T10:09:16.380Z,30.14
2019-05-05T10:11:48.080Z,28.72
2019-05-05T10:14:19.794Z,28.37
2019-05-05T10:16:51.637Z,28.03
2019-05-05T10:19:24.366Z,28.37
2019-05-05T10:21:56.337Z,28.87
2019-05-05T10:24:39.342Z,28.31
2019-05-05T10:27:10.982Z,27.69
2019-05-05T10:29:44.222Z,27.61
2019-05-05T10:32:16.073Z,26.74
2019-05-05T10:35:01.034Z,26.28
2019-05-05T10:37:34.659Z,26.82
2019-05-05T10:40:31.504Z,26.96
2019-05-05T10:43:04.405Z,26.68
2019-05-05T10:45:36.549Z,26.49
2019-05-05T10:48:10.116Z,26.27
2019-05-05T10:50:41.750Z,26.21
2019-05-05T10:53:13.701Z,26.49
2019-05-05T10:55:45.465Z,27.55
2019-05-05T10:58:17.127Z,28.94
2019-05-05T11:00:54.481Z,26.95
2019-05-05T11:03:26.465Z,27.04
2019-05-05T11:05:58.248Z,26.46
2019-05-05T11:08:30.875Z,27.03
2019-05-05T11:11:04.206Z,25.77
2019-05-05T11:13:37.354Z,24.89
2019-05-05T11:16:09.180Z,23.67
2019-05-05T11:18:40.847Z,23.90
2019-05-05T11:21:14.604Z,25.26
2019-05-05T11:23:46.700Z,25.87
2019-05-05T11:26:18.397Z,25.69
2019-05-05T11:28:50.152Z,25.06
2019-05-05T11:31:23.819Z,26.66
2019-05-05T11:34:20.174Z,25.53
2019-05-05T11:37:06.645Z,25.59
2019-05-05T11:39:38.376Z,26.10
2019-05-05T11:42:10.010Z,26.99
2019-05-05T11:44:41.666Z,27.28
2019-05-05T11:47:14.018Z,28.40
2019-05-05T11:49:46.715Z,28.06
2019-05-05T11:52:18.537Z,27.77
2019-05-05T11:54:50.755Z,30.25
2019-05-05T11:57:23.968Z,29.55
2019-05-05T11:59:55.640Z,30.40
2019-05-05T12:02:28.505Z,29.80
2019-05-05T12:05:00.257Z,29.32
2019-05-05T12:07:34.096Z,29.17
2019-05-05T12:10:07.039Z,29.68
2019-05-05T12:12:39.783Z,30.89
2019-05-05T12:15:13.415Z,30.07
2019-05-05T12:17:46.933Z,29.75
2019-05-05T12:20:24.115Z,31.16
2019-05-05T12:22:57.569Z,30.84
2019-05-05T12:26:00.408Z,30.33
2019-05-05T12:28:45.475Z,30.65
2019-05-05T12:31:24.777Z,30.26
2019-05-05T12:33:56.417Z,31.07
2019-05-05T12:36:31.486Z,31.42
2019-05-05T12:39:04.812Z,31.20
2019-05-05T12:41:38.004Z,32.06
2019-05-05T12:44:11.408Z,31.63
2019-05-05T12:46:53.239Z,32.08
2019-05-05T12:49:25.532Z,31.32
2019-05-05T12:51:57.870Z,31.06
2019-05-05T12:54:29.630Z,31.42
2019-05-05T12:57:01.299Z,30.58
2019-05-05T12:59:33.973Z,31.65
2019-05-05T13:02:06.249Z,31.88
2019-05-05T13:04:38.027Z,32.74
2019-05-05T13:07:09.816Z,30.41
2019-05-05T13:09:41.536Z,31.06
2019-05-05T13:12:15.052Z,29.87
2019-05-05T13:14:46.729Z,30.08
2019-05-05T13:17:19.755Z,30.43
2019-05-05T13:20:24.593Z,29.51
2019-05-05T13:23:29.784Z,30.88
2019-05-05T13:26:06.214Z,30.26
2019-05-05T13:28:37.851Z,29.76
2019-05-05T13:31:09.893Z,29.39
2019-05-05T13:33:41.621Z,30.76
2019-05-05T13:36:13.834Z,29.90
2019-05-05T13:38:45.868Z,30.81
2019-05-05T13:41:17.501Z,31.00
2019-05-05T13:43:49.383Z,31.78
2019-05-05T13:46:24.806Z,30.31
2019-05-05T13:49:15.898Z,30.11
2019-05-05T13:51:47.556Z,30.32
2019-05-05T13:54:20.100Z,32.37
2019-05-05T13:56:52.939Z,32.48
2019-05-05T13:59:25.608Z,32.93
2019-05-05T14:01:57.529Z,33.13
2019-05-05T14:04:29.620Z,33.19
2019-05-05T14:07:01.350Z,32.40
2019-05-05T14:09:33.262Z,32.66
2019-05-05T14:12:05.409Z,32.86
2019-05-05T14:14:37.078Z,33.10
2019-05-05T14:17:08.720Z,31.54
2019-05-05T14:19:40.549Z,30.92
2019-05-05T14:22:12.542Z,30.15
2019-05-05T14:24:53.748Z,31.43
2019-05-05T14:27:26.318Z,30.29
2019-05-05T14:30:14.348Z,30.69
2019-05-05T14:32:46.606Z,30.81
2019-05-05T14:35:27.497Z,31.34
2019-05-05T14:38:03.898Z,31.19
2019-05-05T14:40:35.711Z,34.11
2019-05-05T14:43:07.387Z,34.79
2019-05-05T14:45:41.597Z,34.97
2019-05-05T14:48:13.964Z,36.03
2019-05-05T14:50:45.654Z,36.35
2019-05-05T14:53:18.133Z,37.34
2019-05-05T14:55:50.057Z,37.05
2019-05-05T14:58:21.695Z,37.92
2019-05-05T15:00:53.371Z,37.88
2019-05-05T15:03:25.092Z,38.03
2019-05-05T15:06:10.060Z,38.63
2019-05-05T15:09:13.872Z,39.26
2019-05-05T15:12:04.722Z,39.01
2019-05-05T15:14:39.315Z,39.89
2019-05-05T15:17:14.134Z,38.89
2019-05-05T15:19:46.031Z,39.59
2019-05-05T15:22:17.735Z,38.93
2019-05-05T15:24:49.998Z,39.86
2019-05-05T15:27:24.171Z,40.58
2019-05-05T15:29:56.077Z,40.89
2019-05-05T15:32:27.890Z,40.71
2019-05-05T15:34:59.616Z,40.26
2019-05-05T15:37:31.267Z,41.27
2019-05-05T15:40:03.983Z,41.14
2019-05-05T15:42:35.799Z,41.21
2019-05-05T15:45:09.720Z,41.38
2019-05-05T15:47:44.465Z,41.37
2019-05-05T15:50:17.852Z,41.95
2019-05-05T15:52:49.433Z,41.61
2019-05-05T15:55:21.095Z,42.13
2019-05-05T15:57:52.841Z,42.09
2019-05-05T16:00:25.642Z,42.20
2019-05-05T16:02:57.570Z,42.34
2019-05-05T16:05:29.451Z,42.98
2019-05-05T16:08:01.158Z,43.46
2019-05-05T16:10:34.669Z,43.26
2019-05-05T16:13:06.241Z,42.91
2019-05-05T16:16:00.386Z,42.35
2019-05-05T16:19:02.521Z,43.08
2019-05-05T16:21:50.190Z,42.34
2019-05-05T16:24:30.829Z,41.95
2019-05-05T16:27:17.928Z,41.10
2019-05-05T16:29:39.627Z,41.55
2019-05-05T16:32:19.544Z,43.02
2019-05-05T16:34:44.791Z,43.41
2019-05-05T16:37:16.516Z,43.30
2019-05-05T16:39:49.488Z,42.95
2019-05-05T16:42:21.182Z,41.88
2019-05-05T16:44:56.876Z,41.57
2019-05-05T16:47:29.785Z,42.45
2019-05-05T16:50:04.101Z,42.89
2019-05-05T16:52:40.768Z,42.37
2019-05-05T16:55:31.746Z,42.94
2019-05-05T16:58:04.009Z,42.44
2019-05-05T17:00:38.563Z,43.39
2019-05-05T17:03:10.704Z,42.72
2019-05-05T17:05:44.148Z,42.22
2019-05-05T17:08:15.773Z,42.94
2019-05-05T17:10:48.823Z,43.13
2019-05-05T17:13:34.479Z,42.65
2019-05-05T17:16:44.050Z,39.49
2019-05-05T17:19:41.635Z,40.66
2019-05-05T17:22:38.559Z,41.64
2019-05-05T17:25:11.267Z,41.44
2019-05-05T17:27:48.794Z,40.48
2019-05-05T17:30:16.730Z,40.21
2019-05-05T17:32:48.412Z,40.53
2019-05-05T17:35:20.447Z,41.65
2019-05-05T17:37:53.875Z,40.91
2019-05-05T17:40:33.637Z,41.05
2019-05-05T17:43:24.334Z,41.19
2019-05-05T17:46:16.569Z,42.79
2019-05-05T17:49:07.146Z,42.73
2019-05-05T17:51:43.640Z,45.07
2019-05-05T17:54:26.991Z,45.29
2019-05-05T17:56:58.652Z,44.60
2019-05-05T17:59:30.480Z,44.06
2019-05-05T18:02:04.734Z,44.41
2019-05-05T18:04:37.366Z,45.07
2019-05-05T18:07:14.372Z,44.73
2019-05-05T18:10:11.198Z,43.58
2019-05-05T18:13:03.597Z,44.07
2019-05-05T18:16:10.764Z,43.80
2019-05-05T18:18:44.270Z,44.81
2019-05-05T18:21:17.386Z,43.69
2019-05-05T18:23:49.107Z,43.15
2019-05-05T18:26:24.348Z,43.46
2019-05-05T18:28:57.541Z,42.60
2019-05-05T18:31:29.217Z,42.06
2019-05-05T18:34:01.328Z,42.11
2019-05-05T18:36:33.731Z,42.58
2019-05-05T18:39:06.655Z,43.14
2019-05-05T18:41:52.226Z,43.34
2019-05-05T18:44:30.984Z,44.03
2019-05-05T18:47:18.698Z,44.61
2019-05-05T18:57:56.388Z,46.18
2019-05-05T19:00:45.413Z,47.09
2019-05-05T19:03:21.162Z,47.37
2019-05-05T19:06:00.091Z,48.26
2019-05-05T19:08:53.778Z,48.72
2019-05-05T19:11:18.363Z,48.86
2019-05-05T19:13:50.160Z,49.45
2019-05-05T19:16:23.778Z,50.19
2019-05-05T19:18:55.769Z,50.85
2019-05-05T19:21:35.978Z,51.89
2019-05-05T19:24:07.948Z,52.16
2019-05-05T19:26:42.789Z,53.12
2019-05-05T19:29:15.423Z,53.60
2019-05-05T19:31:47.139Z,53.64
2019-05-05T19:34:20.588Z,54.41
2019-05-05T19:36:55.145Z,55.31
2019-05-05T19:39:27.352Z,56.45
2019-05-05T19:42:00.889Z,57.19
2019-05-05T19:44:33.988Z,57.19
2019-05-05T19:47:17.098Z,57.81
2019-05-05T19:49:55.302Z,58.36
2019-05-05T19:52:29.912Z,59.15
2019-05-05T19:55:04.260Z,59.62
2019-05-05T19:57:37.056Z,59.65
2019-05-05T20:00:08.924Z,60.51
2019-05-05T20:02:43.940Z,60.97
2019-05-05T20:05:16.170Z,61.23
2019-05-05T20:07:49.803Z,61.74
2019-05-05T20:10:21.607Z,62.10
2019-05-05T20:12:54.141Z,62.18
2019-05-05T20:15:33.805Z,61.93
2019-05-05T20:31:45.588Z,63.30
2019-05-05T20:34:35.168Z,63.63
2019-05-05T20:37:13.997Z,63.84
2019-05-05T20:39:46.456Z,64.07
2019-05-05T20:42:18.135Z,63.97
2019-05-05T20:44:49.815Z,63.89
2019-05-05T20:47:24.743Z,64.24
2019-05-05T20:49:56.428Z,64.04
2019-05-05T20:52:28.344Z,63.70
2019-05-05T20:55:00.060Z,64.08
2019-05-05T20:57:34.334Z,64.78
2019-05-05T21:00:06.316Z,64.72
2019-05-05T21:02:39.519Z,64.30
2019-05-05T21:05:11.175Z,64.65
2019-05-05T21:07:44.365Z,64.71
2019-05-05T21:10:16.432Z,64.63
2019-05-05T21:12:49.184Z,64.02
2019-05-05T21:15:20.869Z,64.05
2019-05-05T21:17:54.130Z,63.74
2019-05-05T21:20:26.114Z,63.60
2019-05-05T21:23:05.779Z,63.36
2019-05-05T21:25:39.727Z,63.58
2019-05-05T21:28:11.485Z,63.72
2019-05-05T21:30:45.329Z,63.57
2019-05-05T21:33:19.846Z,63.16
2019-05-05T21:35:52.024Z,63.10
2019-05-05T21:38:23.830Z,62.49
2019-05-05T21:40:56.110Z,63.11
2019-05-05T21:43:28.224Z,62.71
2019-05-05T21:45:59.919Z,63.26
2019-05-05T21:48:35.162Z,63.19
2019-05-05T21:51:14.654Z,62.97
2019-05-05T21:54:14.566Z,62.99
2019-05-05T21:57:06.958Z,62.74
2019-05-05T21:59:51.717Z,62.50
2019-05-05T22:02:15.187Z,62.27
2019-05-05T22:04:46.617Z,62.34
2019-05-05T22:07:18.759Z,62.38
2019-05-05T22:09:50.737Z,61.96
2019-05-05T22:12:24.284Z,61.94
2019-05-05T22:15:00.183Z,62.02
2019-05-05T22:17:33.601Z,61.91
2019-05-05T22:20:16.002Z,61.54
2019-05-05T22:22:48.686Z,61.26
2019-05-05T22:25:21.156Z,61.63
2019-05-05T22:27:54.523Z,62.12
2019-05-05T22:30:26.994Z,61.74
2019-05-05T22:33:05.744Z,61.31
2019-05-05T22:35:36.031Z,61.70
2019-05-05T22:38:08.520Z,61.37
2019-05-05T22:40:40.298Z,61.37
2019-05-05T22:43:14.379Z,61.36
2019-05-05T22:45:45.945Z,61.73
2019-05-05T22:48:17.825Z,62.29
2019-05-05T22:50:50.016Z,61.70
2019-05-05T22:53:23.901Z,61.43
2019-05-05T22:55:55.509Z,62.24
2019-05-05T22:58:27.354Z,61.76
2019-05-05T23:00:59.146Z,61.92
2019-05-05T23:04:03.717Z,62.87
2019-05-05T23:06:35.659Z,62.87
2019-05-05T23:09:14.594Z,63.12
2019-05-05T23:11:47.817Z,63.12
2019-05-05T23:14:28.701Z,62.26
2019-05-05T23:20:18.280Z,61.81
2019-05-05T23:23:07.618Z,61.67
2019-05-05T23:25:45.769Z,61.55
2019-05-05T23:28:17.902Z,61.35
2019-05-05T23:30:50.916Z,62.08
2019-05-05T23:33:24.519Z,62.88
2019-05-05T23:35:56.731Z,63.08
2019-05-05T23:38:28.729Z,63.23
2019-05-05T23:41:03.701Z,63.19
2019-05-05T23:43:35.202Z,63.23
2019-05-05T23:46:07.014Z,62.62
2019-05-05T23:48:40.467Z,62.46
2019-05-05T23:51:14.002Z,62.44
2019-05-05T23:53:45.750Z,62.45
2019-05-05T23:56:17.516Z,62.94
2019-05-05T23:58:49.255Z,62.25
